sensor_id;sensor_type;location;lat;lon;timestamp;P1;durP1;ratioP1;P2;durP2;ratioP2
24090;SDS011;12272;52.426;17.100;2024-01-30T00:01:23;30.87;;;18.20;;
24090;SDS011;12272;52.426;17.100;2024-01-30T00:06:26;41.13;;;24.33;;
24090;SDS011;12272;52.426;17.100;2024-01-30T00:11:29;43.47;;;26.20;;
24090;SDS011;12272;52.426;17.100;2024-01-30T00:16:31;36.93;;;24.23;;
24090;SDS011;12272;52.426;17.100;2024-01-30T00:21:34;51.70;;;26.10;;
24090;SDS011;12272;52.426;17.100;2024-01-30T00:26:36;50.53;;;27.40;;
24090;SDS011;12272;52.426;17.100;2024-01-30T00:31:39;51.50;;;29.20;;
24090;SDS011;12272;52.426;17.100;2024-01-30T00:36:43;64.00;;;31.50;;
24090;SDS011;12272;52.426;17.100;2024-01-30T00:41:45;57.23;;;28.47;;
24090;SDS011;12272;52.426;17.100;2024-01-30T00:46:48;48.73;;;26.83;;
24090;SDS011;12272;52.426;17.100;2024-01-30T00:51:51;48.47;;;26.57;;
24090;SDS011;12272;52.426;17.100;2024-01-30T00:56:53;35.20;;;19.53;;
24090;SDS011;12272;52.426;17.100;2024-01-30T01:01:56;40.77;;;23.77;;
24090;SDS011;12272;52.426;17.100;2024-01-30T01:06:58;29.83;;;17.23;;
24090;SDS011;12272;52.426;17.100;2024-01-30T01:12:01;33.10;;;18.97;;
24090;SDS011;12272;52.426;17.100;2024-01-30T01:17:04;43.10;;;24.90;;
24090;SDS011;12272;52.426;17.100;2024-01-30T01:22:07;54.53;;;26.90;;
24090;SDS011;12272;52.426;17.100;2024-01-30T01:27:10;44.17;;;24.90;;
24090;SDS011;12272;52.426;17.100;2024-01-30T01:32:13;43.93;;;24.73;;
24090;SDS011;12272;52.426;17.100;2024-01-30T01:37:15;49.27;;;24.60;;
24090;SDS011;12272;52.426;17.100;2024-01-30T01:42:18;42.23;;;24.57;;
24090;SDS011;12272;52.426;17.100;2024-01-30T01:47:20;46.47;;;25.43;;
24090;SDS011;12272;52.426;17.100;2024-01-30T01:52:23;46.33;;;27.10;;
24090;SDS011;12272;52.426;17.100;2024-01-30T01:57:26;29.30;;;18.17;;
24090;SDS011;12272;52.426;17.100;2024-01-30T02:02:29;45.57;;;23.87;;
24090;SDS011;12272;52.426;17.100;2024-01-30T02:07:36;41.97;;;24.10;;
24090;SDS011;12272;52.426;17.100;2024-01-30T02:12:39;45.97;;;25.27;;
24090;SDS011;12272;52.426;17.100;2024-01-30T02:17:42;39.87;;;23.00;;
24090;SDS011;12272;52.426;17.100;2024-01-30T02:22:45;43.57;;;24.30;;
24090;SDS011;12272;52.426;17.100;2024-01-30T02:27:48;47.13;;;24.33;;
24090;SDS011;12272;52.426;17.100;2024-01-30T02:32:51;35.20;;;21.70;;
24090;SDS011;12272;52.426;17.100;2024-01-30T02:37:54;44.27;;;24.07;;
24090;SDS011;12272;52.426;17.100;2024-01-30T02:42:57;41.37;;;24.33;;
24090;SDS011;12272;52.426;17.100;2024-01-30T02:48:01;40.27;;;21.57;;
24090;SDS011;12272;52.426;17.100;2024-01-30T02:53:03;41.60;;;21.80;;
24090;SDS011;12272;52.426;17.100;2024-01-30T02:58:06;31.80;;;17.37;;
24090;SDS011;12272;52.426;17.100;2024-01-30T03:03:09;40.10;;;23.53;;
24090;SDS011;12272;52.426;17.100;2024-01-30T03:08:11;45.40;;;23.87;;
24090;SDS011;12272;52.426;17.100;2024-01-30T03:13:14;37.00;;;22.20;;
24090;SDS011;12272;52.426;17.100;2024-01-30T03:18:17;41.67;;;21.67;;
24090;SDS011;12272;52.426;17.100;2024-01-30T03:23:19;41.27;;;22.97;;
24090;SDS011;12272;52.426;17.100;2024-01-30T03:28:22;38.17;;;23.10;;
24090;SDS011;12272;52.426;17.100;2024-01-30T03:33:24;42.43;;;22.20;;
24090;SDS011;12272;52.426;17.100;2024-01-30T03:38:27;36.43;;;20.73;;
24090;SDS011;12272;52.426;17.100;2024-01-30T03:43:29;37.73;;;22.07;;
24090;SDS011;12272;52.426;17.100;2024-01-30T03:48:32;40.33;;;21.93;;
24090;SDS011;12272;52.426;17.100;2024-01-30T03:53:35;35.87;;;21.07;;
24090;SDS011;12272;52.426;17.100;2024-01-30T03:58:38;29.83;;;17.67;;
24090;SDS011;12272;52.426;17.100;2024-01-30T04:03:40;32.53;;;18.47;;
24090;SDS011;12272;52.426;17.100;2024-01-30T04:08:44;32.57;;;20.60;;
24090;SDS011;12272;52.426;17.100;2024-01-30T04:13:46;29.60;;;16.70;;
24090;SDS011;12272;52.426;17.100;2024-01-30T04:18:51;37.23;;;21.23;;
24090;SDS011;12272;52.426;17.100;2024-01-30T04:23:54;33.37;;;20.60;;
24090;SDS011;12272;52.426;17.100;2024-01-30T04:28:57;26.77;;;18.30;;
24090;SDS011;12272;52.426;17.100;2024-01-30T04:33:59;33.93;;;19.63;;
24090;SDS011;12272;52.426;17.100;2024-01-30T04:39:02;38.97;;;21.40;;
24090;SDS011;12272;52.426;17.100;2024-01-30T04:44:05;35.17;;;20.40;;
24090;SDS011;12272;52.426;17.100;2024-01-30T04:49:08;32.77;;;18.57;;
24090;SDS011;12272;52.426;17.100;2024-01-30T04:54:11;25.37;;;17.23;;
24090;SDS011;12272;52.426;17.100;2024-01-30T04:59:13;34.13;;;19.47;;
24090;SDS011;12272;52.426;17.100;2024-01-30T05:04:16;32.17;;;18.03;;
24090;SDS011;12272;52.426;17.100;2024-01-30T05:09:19;31.90;;;17.87;;
24090;SDS011;12272;52.426;17.100;2024-01-30T05:14:21;38.43;;;21.20;;
24090;SDS011;12272;52.426;17.100;2024-01-30T05:19:24;36.03;;;20.40;;
24090;SDS011;12272;52.426;17.100;2024-01-30T05:24:26;52.60;;;30.93;;
24090;SDS011;12272;52.426;17.100;2024-01-30T05:29:29;29.10;;;15.93;;
24090;SDS011;12272;52.426;17.100;2024-01-30T05:34:31;40.83;;;24.63;;
24090;SDS011;12272;52.426;17.100;2024-01-30T05:39:35;34.70;;;21.47;;
24090;SDS011;12272;52.426;17.100;2024-01-30T05:44:38;46.73;;;23.63;;
24090;SDS011;12272;52.426;17.100;2024-01-30T05:49:40;44.67;;;24.07;;
24090;SDS011;12272;52.426;17.100;2024-01-30T05:54:43;44.23;;;23.87;;
24090;SDS011;12272;52.426;17.100;2024-01-30T05:59:46;36.47;;;20.87;;
24090;SDS011;12272;52.426;17.100;2024-01-30T06:04:49;28.27;;;16.27;;
24090;SDS011;12272;52.426;17.100;2024-01-30T06:09:52;28.83;;;18.77;;
24090;SDS011;12272;52.426;17.100;2024-01-30T06:14:55;45.50;;;24.93;;
24090;SDS011;12272;52.426;17.100;2024-01-30T06:19:58;61.67;;;31.23;;
24090;SDS011;12272;52.426;17.100;2024-01-30T06:25:01;54.93;;;28.00;;
24090;SDS011;12272;52.426;17.100;2024-01-30T06:30:04;41.90;;;24.27;;
24090;SDS011;12272;52.426;17.100;2024-01-30T06:35:07;36.07;;;22.00;;
24090;SDS011;12272;52.426;17.100;2024-01-30T06:40:12;34.40;;;20.67;;
24090;SDS011;12272;52.426;17.100;2024-01-30T06:45:15;31.57;;;18.70;;
24090;SDS011;12272;52.426;17.100;2024-01-30T06:50:17;29.40;;;18.97;;
24090;SDS011;12272;52.426;17.100;2024-01-30T06:55:20;23.10;;;15.27;;
24090;SDS011;12272;52.426;17.100;2024-01-30T07:00:22;27.97;;;18.43;;
24090;SDS011;12272;52.426;17.100;2024-01-30T07:05:25;26.80;;;15.57;;
24090;SDS011;12272;52.426;17.100;2024-01-30T07:10:28;36.80;;;20.50;;
24090;SDS011;12272;52.426;17.100;2024-01-30T07:15:31;27.37;;;18.03;;
24090;SDS011;12272;52.426;17.100;2024-01-30T07:20:33;31.17;;;18.37;;
24090;SDS011;12272;52.426;17.100;2024-01-30T07:25:37;26.87;;;16.73;;
24090;SDS011;12272;52.426;17.100;2024-01-30T07:30:43;31.10;;;17.80;;
24090;SDS011;12272;52.426;17.100;2024-01-30T07:35:46;35.97;;;18.97;;
24090;SDS011;12272;52.426;17.100;2024-01-30T07:40:49;38.20;;;23.17;;
24090;SDS011;12272;52.426;17.100;2024-01-30T07:45:51;35.37;;;19.83;;
24090;SDS011;12272;52.426;17.100;2024-01-30T07:50:54;34.07;;;18.33;;
24090;SDS011;12272;52.426;17.100;2024-01-30T07:55:56;36.30;;;20.03;;
24090;SDS011;12272;52.426;17.100;2024-01-30T08:00:59;35.60;;;16.80;;
24090;SDS011;12272;52.426;17.100;2024-01-30T08:06:03;27.60;;;16.77;;
24090;SDS011;12272;52.426;17.100;2024-01-30T08:11:05;36.77;;;16.77;;
24090;SDS011;12272;52.426;17.100;2024-01-30T08:16:09;25.60;;;16.03;;
24090;SDS011;12272;52.426;17.100;2024-01-30T08:21:16;35.40;;;19.27;;
24090;SDS011;12272;52.426;17.100;2024-01-30T08:26:18;28.13;;;16.40;;
24090;SDS011;12272;52.426;17.100;2024-01-30T08:31:21;24.67;;;15.77;;
24090;SDS011;12272;52.426;17.100;2024-01-30T08:36:23;27.03;;;15.97;;
24090;SDS011;12272;52.426;17.100;2024-01-30T08:41:27;30.60;;;18.40;;
24090;SDS011;12272;52.426;17.100;2024-01-30T08:46:29;29.97;;;18.63;;
24090;SDS011;12272;52.426;17.100;2024-01-30T08:51:32;36.77;;;16.47;;
24090;SDS011;12272;52.426;17.100;2024-01-30T08:56:35;38.20;;;20.03;;
24090;SDS011;12272;52.426;17.100;2024-01-30T09:01:38;30.20;;;18.90;;
24090;SDS011;12272;52.426;17.100;2024-01-30T09:06:45;27.23;;;16.60;;
24090;SDS011;12272;52.426;17.100;2024-01-30T09:11:48;28.73;;;18.13;;
24090;SDS011;12272;52.426;17.100;2024-01-30T09:16:50;29.73;;;18.13;;
24090;SDS011;12272;52.426;17.100;2024-01-30T09:21:53;32.27;;;19.93;;
24090;SDS011;12272;52.426;17.100;2024-01-30T09:26:55;33.60;;;19.57;;
24090;SDS011;12272;52.426;17.100;2024-01-30T09:31:58;38.87;;;21.07;;
24090;SDS011;12272;52.426;17.100;2024-01-30T09:37:00;35.77;;;20.33;;
24090;SDS011;12272;52.426;17.100;2024-01-30T09:47:12;28.90;;;17.70;;
24090;SDS011;12272;52.426;17.100;2024-01-30T09:52:17;26.60;;;17.07;;
24090;SDS011;12272;52.426;17.100;2024-01-30T09:57:20;27.00;;;15.43;;
24090;SDS011;12272;52.426;17.100;2024-01-30T10:02:23;28.07;;;17.57;;
24090;SDS011;12272;52.426;17.100;2024-01-30T10:07:25;30.67;;;17.47;;
24090;SDS011;12272;52.426;17.100;2024-01-30T10:12:29;37.97;;;20.10;;
24090;SDS011;12272;52.426;17.100;2024-01-30T10:17:32;33.57;;;23.37;;
24090;SDS011;12272;52.426;17.100;2024-01-30T10:22:35;42.47;;;24.70;;
24090;SDS011;12272;52.426;17.100;2024-01-30T10:27:39;39.10;;;25.03;;
24090;SDS011;12272;52.426;17.100;2024-01-30T10:32:42;31.70;;;22.87;;
24090;SDS011;12272;52.426;17.100;2024-01-30T10:37:44;37.97;;;23.87;;
24090;SDS011;12272;52.426;17.100;2024-01-30T10:42:49;36.70;;;25.10;;
24090;SDS011;12272;52.426;17.100;2024-01-30T10:47:57;42.87;;;25.10;;
24090;SDS011;12272;52.426;17.100;2024-01-30T10:53:03;41.63;;;23.97;;
24090;SDS011;12272;52.426;17.100;2024-01-30T10:58:06;65.03;;;32.40;;
24090;SDS011;12272;52.426;17.100;2024-01-30T11:03:10;47.30;;;25.23;;
24090;SDS011;12272;52.426;17.100;2024-01-30T11:08:13;22.73;;;15.20;;
24090;SDS011;12272;52.426;17.100;2024-01-30T11:13:18;28.23;;;15.70;;
24090;SDS011;12272;52.426;17.100;2024-01-30T11:18:24;24.00;;;14.60;;
24090;SDS011;12272;52.426;17.100;2024-01-30T11:23:28;24.07;;;13.67;;
24090;SDS011;12272;52.426;17.100;2024-01-30T11:28:33;22.27;;;14.13;;
24090;SDS011;12272;52.426;17.100;2024-01-30T11:33:36;23.30;;;15.33;;
24090;SDS011;12272;52.426;17.100;2024-01-30T11:38:40;27.30;;;16.03;;
24090;SDS011;12272;52.426;17.100;2024-01-30T11:43:52;26.67;;;16.03;;
24090;SDS011;12272;52.426;17.100;2024-01-30T11:48:55;23.70;;;14.30;;
24090;SDS011;12272;52.426;17.100;2024-01-30T11:53:58;24.90;;;14.63;;
24090;SDS011;12272;52.426;17.100;2024-01-30T11:59:01;34.00;;;19.17;;
24090;SDS011;12272;52.426;17.100;2024-01-30T12:04:03;21.90;;;13.87;;
24090;SDS011;12272;52.426;17.100;2024-01-30T12:09:12;20.47;;;13.13;;
24090;SDS011;12272;52.426;17.100;2024-01-30T12:14:15;21.30;;;13.13;;
24090;SDS011;12272;52.426;17.100;2024-01-30T12:19:22;28.47;;;16.33;;
24090;SDS011;12272;52.426;17.100;2024-01-30T12:24:25;23.80;;;13.23;;
24090;SDS011;12272;52.426;17.100;2024-01-30T12:29:31;21.77;;;13.73;;
24090;SDS011;12272;52.426;17.100;2024-01-30T12:34:40;27.37;;;14.70;;
24090;SDS011;12272;52.426;17.100;2024-01-30T12:39:57;22.00;;;14.30;;
24090;SDS011;12272;52.426;17.100;2024-01-30T12:45:04;65.90;;;35.20;;
24090;SDS011;12272;52.426;17.100;2024-01-30T12:50:07;31.67;;;19.03;;
24090;SDS011;12272;52.426;17.100;2024-01-30T12:55:10;46.70;;;24.47;;
24090;SDS011;12272;52.426;17.100;2024-01-30T13:00:12;27.90;;;18.83;;
24090;SDS011;12272;52.426;17.100;2024-01-30T13:05:15;26.80;;;17.57;;
24090;SDS011;12272;52.426;17.100;2024-01-30T13:10:18;37.33;;;22.47;;
24090;SDS011;12272;52.426;17.100;2024-01-30T13:15:20;30.50;;;17.97;;
24090;SDS011;12272;52.426;17.100;2024-01-30T13:20:24;28.30;;;18.93;;
24090;SDS011;12272;52.426;17.100;2024-01-30T13:25:27;32.63;;;21.13;;
24090;SDS011;12272;52.426;17.100;2024-01-30T13:30:29;40.13;;;21.93;;
24090;SDS011;12272;52.426;17.100;2024-01-30T13:35:32;36.27;;;19.37;;
24090;SDS011;12272;52.426;17.100;2024-01-30T13:40:34;27.77;;;19.07;;
24090;SDS011;12272;52.426;17.100;2024-01-30T13:45:37;35.67;;;21.60;;
24090;SDS011;12272;52.426;17.100;2024-01-30T13:50:40;34.70;;;21.03;;
24090;SDS011;12272;52.426;17.100;2024-01-30T13:55:42;34.07;;;19.83;;
24090;SDS011;12272;52.426;17.100;2024-01-30T14:00:45;30.53;;;18.27;;
24090;SDS011;12272;52.426;17.100;2024-01-30T14:05:48;32.70;;;21.17;;
24090;SDS011;12272;52.426;17.100;2024-01-30T14:10:50;31.00;;;19.20;;
24090;SDS011;12272;52.426;17.100;2024-01-30T14:15:53;30.60;;;18.03;;
24090;SDS011;12272;52.426;17.100;2024-01-30T14:20:56;27.10;;;18.17;;
24090;SDS011;12272;52.426;17.100;2024-01-30T14:25:58;37.63;;;19.47;;
24090;SDS011;12272;52.426;17.100;2024-01-30T14:31:01;38.93;;;19.80;;
24090;SDS011;12272;52.426;17.100;2024-01-30T14:36:03;29.00;;;18.33;;
24090;SDS011;12272;52.426;17.100;2024-01-30T14:41:06;34.97;;;20.93;;
24090;SDS011;12272;52.426;17.100;2024-01-30T14:46:09;38.57;;;20.90;;
24090;SDS011;12272;52.426;17.100;2024-01-30T14:51:11;31.27;;;19.90;;
24090;SDS011;12272;52.426;17.100;2024-01-30T14:56:16;30.03;;;18.93;;
24090;SDS011;12272;52.426;17.100;2024-01-30T15:01:19;31.07;;;19.03;;
24090;SDS011;12272;52.426;17.100;2024-01-30T15:06:22;29.90;;;18.03;;
24090;SDS011;12272;52.426;17.100;2024-01-30T15:11:26;37.37;;;19.27;;
24090;SDS011;12272;52.426;17.100;2024-01-30T15:16:28;38.53;;;20.83;;
24090;SDS011;12272;52.426;17.100;2024-01-30T15:21:31;39.70;;;21.90;;
24090;SDS011;12272;52.426;17.100;2024-01-30T15:26:33;37.13;;;23.27;;
24090;SDS011;12272;52.426;17.100;2024-01-30T15:31:36;38.80;;;23.47;;
24090;SDS011;12272;52.426;17.100;2024-01-30T15:36:38;37.37;;;24.43;;
24090;SDS011;12272;52.426;17.100;2024-01-30T15:41:41;31.47;;;19.60;;
24090;SDS011;12272;52.426;17.100;2024-01-30T15:46:43;41.17;;;23.17;;
24090;SDS011;12272;52.426;17.100;2024-01-30T15:51:46;38.33;;;23.57;;
24090;SDS011;12272;52.426;17.100;2024-01-30T15:56:49;37.20;;;23.20;;
24090;SDS011;12272;52.426;17.100;2024-01-30T16:01:52;42.20;;;22.37;;
24090;SDS011;12272;52.426;17.100;2024-01-30T16:06:54;46.57;;;24.30;;
24090;SDS011;12272;52.426;17.100;2024-01-30T16:11:57;40.87;;;24.17;;
24090;SDS011;12272;52.426;17.100;2024-01-30T16:17:00;37.43;;;22.57;;
24090;SDS011;12272;52.426;17.100;2024-01-30T16:22:03;47.50;;;29.33;;
24090;SDS011;12272;52.426;17.100;2024-01-30T16:27:06;222.70;;;92.67;;
24090;SDS011;12272;52.426;17.100;2024-01-30T16:32:08;83.63;;;45.63;;
24090;SDS011;12272;52.426;17.100;2024-01-30T16:37:11;41.63;;;25.73;;
24090;SDS011;12272;52.426;17.100;2024-01-30T16:42:13;51.57;;;28.87;;
24090;SDS011;12272;52.426;17.100;2024-01-30T16:47:16;338.30;;;165.83;;
24090;SDS011;12272;52.426;17.100;2024-01-30T16:52:19;63.80;;;40.87;;
24090;SDS011;12272;52.426;17.100;2024-01-30T16:57:22;44.97;;;29.83;;
24090;SDS011;12272;52.426;17.100;2024-01-30T17:02:24;36.33;;;24.37;;
24090;SDS011;12272;52.426;17.100;2024-01-30T17:07:28;44.73;;;25.40;;
24090;SDS011;12272;52.426;17.100;2024-01-30T17:12:36;56.43;;;35.53;;
24090;SDS011;12272;52.426;17.100;2024-01-30T17:17:38;49.80;;;31.27;;
24090;SDS011;12272;52.426;17.100;2024-01-30T17:22:41;46.83;;;28.67;;
24090;SDS011;12272;52.426;17.100;2024-01-30T17:27:47;53.17;;;32.87;;
24090;SDS011;12272;52.426;17.100;2024-01-30T17:32:51;43.23;;;26.23;;
24090;SDS011;12272;52.426;17.100;2024-01-30T17:37:53;46.60;;;25.90;;
24090;SDS011;12272;52.426;17.100;2024-01-30T17:42:56;58.87;;;30.00;;
24090;SDS011;12272;52.426;17.100;2024-01-30T17:47:58;212.90;;;103.10;;
24090;SDS011;12272;52.426;17.100;2024-01-30T17:53:02;66.53;;;35.33;;
24090;SDS011;12272;52.426;17.100;2024-01-30T17:58:06;50.73;;;35.83;;
24090;SDS011;12272;52.426;17.100;2024-01-30T18:03:08;59.07;;;39.60;;
24090;SDS011;12272;52.426;17.100;2024-01-30T18:08:11;68.10;;;44.13;;
24090;SDS011;12272;52.426;17.100;2024-01-30T18:13:14;66.33;;;43.37;;
24090;SDS011;12272;52.426;17.100;2024-01-30T18:18:18;69.80;;;43.10;;
24090;SDS011;12272;52.426;17.100;2024-01-30T18:23:21;68.23;;;43.83;;
24090;SDS011;12272;52.426;17.100;2024-01-30T18:28:23;87.63;;;50.53;;
24090;SDS011;12272;52.426;17.100;2024-01-30T18:33:26;102.97;;;58.77;;
24090;SDS011;12272;52.426;17.100;2024-01-30T18:38:29;99.00;;;56.30;;
24090;SDS011;12272;52.426;17.100;2024-01-30T18:43:32;132.70;;;68.13;;
24090;SDS011;12272;52.426;17.100;2024-01-30T18:48:36;113.87;;;62.20;;
24090;SDS011;12272;52.426;17.100;2024-01-30T18:53:39;157.47;;;82.07;;
24090;SDS011;12272;52.426;17.100;2024-01-30T18:58:42;616.23;;;355.83;;
24090;SDS011;12272;52.426;17.100;2024-01-30T19:03:44;577.73;;;330.47;;
24090;SDS011;12272;52.426;17.100;2024-01-30T19:08:48;513.93;;;291.50;;
24090;SDS011;12272;52.426;17.100;2024-01-30T19:13:52;272.07;;;143.73;;
24090;SDS011;12272;52.426;17.100;2024-01-30T19:18:57;167.67;;;94.57;;
24090;SDS011;12272;52.426;17.100;2024-01-30T19:24:00;182.03;;;94.40;;
24090;SDS011;12272;52.426;17.100;2024-01-30T19:29:02;161.60;;;87.60;;
24090;SDS011;12272;52.426;17.100;2024-01-30T19:34:05;286.50;;;159.83;;
24090;SDS011;12272;52.426;17.100;2024-01-30T19:39:07;199.07;;;107.93;;
24090;SDS011;12272;52.426;17.100;2024-01-30T19:44:15;174.37;;;95.27;;
24090;SDS011;12272;52.426;17.100;2024-01-30T19:49:19;149.00;;;78.67;;
24090;SDS011;12272;52.426;17.100;2024-01-30T19:54:22;154.07;;;80.27;;
24090;SDS011;12272;52.426;17.100;2024-01-30T19:59:29;299.57;;;170.47;;
24090;SDS011;12272;52.426;17.100;2024-01-30T20:04:38;194.83;;;103.00;;
24090;SDS011;12272;52.426;17.100;2024-01-30T20:09:41;142.17;;;78.03;;
24090;SDS011;12272;52.426;17.100;2024-01-30T20:14:44;137.63;;;73.53;;
24090;SDS011;12272;52.426;17.100;2024-01-30T20:19:46;174.00;;;95.80;;
24090;SDS011;12272;52.426;17.100;2024-01-30T20:24:50;128.77;;;70.80;;
24090;SDS011;12272;52.426;17.100;2024-01-30T20:30:05;452.73;;;251.53;;
24090;SDS011;12272;52.426;17.100;2024-01-30T20:35:12;105.27;;;57.63;;
24090;SDS011;12272;52.426;17.100;2024-01-30T20:40:15;105.30;;;54.80;;
24090;SDS011;12272;52.426;17.100;2024-01-30T20:45:19;77.27;;;42.63;;
24090;SDS011;12272;52.426;17.100;2024-01-30T20:50:22;61.83;;;36.43;;
24090;SDS011;12272;52.426;17.100;2024-01-30T20:55:24;83.67;;;47.37;;
24090;SDS011;12272;52.426;17.100;2024-01-30T21:00:27;81.63;;;43.97;;
24090;SDS011;12272;52.426;17.100;2024-01-30T21:05:29;92.10;;;47.97;;
24090;SDS011;12272;52.426;17.100;2024-01-30T21:10:32;72.87;;;41.63;;
24090;SDS011;12272;52.426;17.100;2024-01-30T21:15:35;70.27;;;44.00;;
24090;SDS011;12272;52.426;17.100;2024-01-30T21:20:37;67.43;;;39.43;;
24090;SDS011;12272;52.426;17.100;2024-01-30T21:25:39;72.60;;;39.50;;
24090;SDS011;12272;52.426;17.100;2024-01-30T21:30:42;71.57;;;39.17;;
24090;SDS011;12272;52.426;17.100;2024-01-30T21:35:45;70.77;;;40.43;;
24090;SDS011;12272;52.426;17.100;2024-01-30T21:40:47;70.73;;;37.90;;
24090;SDS011;12272;52.426;17.100;2024-01-30T21:45:50;67.83;;;38.97;;
24090;SDS011;12272;52.426;17.100;2024-01-30T21:50:52;68.77;;;40.30;;
24090;SDS011;12272;52.426;17.100;2024-01-30T21:55:55;69.43;;;41.17;;
24090;SDS011;12272;52.426;17.100;2024-01-30T22:00:57;74.93;;;42.53;;
24090;SDS011;12272;52.426;17.100;2024-01-30T22:06:00;76.37;;;42.80;;
24090;SDS011;12272;52.426;17.100;2024-01-30T22:11:03;77.10;;;43.47;;
24090;SDS011;12272;52.426;17.100;2024-01-30T22:16:08;73.60;;;42.00;;
24090;SDS011;12272;52.426;17.100;2024-01-30T22:21:11;80.73;;;42.80;;
24090;SDS011;12272;52.426;17.100;2024-01-30T22:26:18;68.10;;;39.57;;
24090;SDS011;12272;52.426;17.100;2024-01-30T22:31:20;68.13;;;37.80;;
24090;SDS011;12272;52.426;17.100;2024-01-30T22:36:23;60.50;;;37.67;;
24090;SDS011;12272;52.426;17.100;2024-01-30T22:41:26;68.50;;;40.17;;
24090;SDS011;12272;52.426;17.100;2024-01-30T22:46:30;63.97;;;37.30;;
24090;SDS011;12272;52.426;17.100;2024-01-30T22:51:33;58.60;;;33.87;;
24090;SDS011;12272;52.426;17.100;2024-01-30T22:56:35;72.80;;;39.50;;
24090;SDS011;12272;52.426;17.100;2024-01-30T23:01:38;55.87;;;35.43;;
24090;SDS011;12272;52.426;17.100;2024-01-30T23:06:41;65.57;;;37.83;;
24090;SDS011;12272;52.426;17.100;2024-01-30T23:11:47;60.63;;;34.20;;
24090;SDS011;12272;52.426;17.100;2024-01-30T23:16:50;84.37;;;50.47;;
24090;SDS011;12272;52.426;17.100;2024-01-30T23:21:53;70.53;;;40.20;;
24090;SDS011;12272;52.426;17.100;2024-01-30T23:26:55;79.27;;;45.23;;
24090;SDS011;12272;52.426;17.100;2024-01-30T23:31:58;82.67;;;46.43;;
24090;SDS011;12272;52.426;17.100;2024-01-30T23:37:01;77.83;;;41.83;;
24090;SDS011;12272;52.426;17.100;2024-01-30T23:42:04;52.13;;;30.87;;
24090;SDS011;12272;52.426;17.100;2024-01-30T23:47:06;63.00;;;40.93;;
24090;SDS011;12272;52.426;17.100;2024-01-30T23:52:09;62.47;;;37.90;;
24090;SDS011;12272;52.426;17.100;2024-01-30T23:57:12;52.00;;;32.73;;
